sensor_id;sensor_type;location;lat;lon;timestamp;P1;durP1;ratioP1;P2;durP2;ratioP2
76296;SDS011;65104;52.994;6.552;2023-07-29T00:00:15;5.75;;;3.85;;
76296;SDS011;65104;52.994;6.552;2023-07-29T00:02:41;7.85;;;4.32;;
76296;SDS011;65104;52.994;6.552;2023-07-29T00:05:07;7.15;;;4.25;;
76296;SDS011;65104;52.994;6.552;2023-07-29T00:07:32;6.45;;;3.40;;
76296;SDS011;65104;52.994;6.552;2023-07-29T00:09:58;5.00;;;3.78;;
76296;SDS011;65104;52.994;6.552;2023-07-29T00:12:23;7.00;;;4.10;;
76296;SDS011;65104;52.994;6.552;2023-07-29T00:14:49;5.63;;;3.55;;
76296;SDS011;65104;52.994;6.552;2023-07-29T00:17:14;6.25;;;3.72;;
76296;SDS011;65104;52.994;6.552;2023-07-29T00:19:39;7.00;;;4.35;;
76296;SDS011;65104;52.994;6.552;2023-07-29T00:22:05;5.82;;;3.90;;
76296;SDS011;65104;52.994;6.552;2023-07-29T00:24:30;6.47;;;4.15;;
76296;SDS011;65104;52.994;6.552;2023-07-29T00:26:55;5.47;;;3.85;;
76296;SDS011;65104;52.994;6.552;2023-07-29T00:29:21;6.60;;;4.38;;
76296;SDS011;65104;52.994;6.552;2023-07-29T00:31:46;7.78;;;4.78;;
76296;SDS011;65104;52.994;6.552;2023-07-29T00:34:11;7.22;;;3.88;;
76296;SDS011;65104;52.994;6.552;2023-07-29T00:36:42;8.85;;;5.05;;
76296;SDS011;65104;52.994;6.552;2023-07-29T00:39:07;6.88;;;4.45;;
76296;SDS011;65104;52.994;6.552;2023-07-29T00:41:32;6.18;;;4.22;;
76296;SDS011;65104;52.994;6.552;2023-07-29T00:43:58;8.00;;;4.38;;
76296;SDS011;65104;52.994;6.552;2023-07-29T00:46:23;7.03;;;4.18;;
76296;SDS011;65104;52.994;6.552;2023-07-29T00:48:49;7.45;;;4.65;;
76296;SDS011;65104;52.994;6.552;2023-07-29T00:51:15;6.88;;;4.70;;
76296;SDS011;65104;52.994;6.552;2023-07-29T00:53:40;7.50;;;4.80;;
76296;SDS011;65104;52.994;6.552;2023-07-29T00:56:06;6.00;;;4.22;;
76296;SDS011;65104;52.994;6.552;2023-07-29T00:58:32;6.88;;;4.45;;
76296;SDS011;65104;52.994;6.552;2023-07-29T01:00:57;7.55;;;4.88;;
76296;SDS011;65104;52.994;6.552;2023-07-29T01:03:22;8.75;;;5.22;;
76296;SDS011;65104;52.994;6.552;2023-07-29T01:05:59;7.28;;;4.88;;
76296;SDS011;65104;52.994;6.552;2023-07-29T01:16:46;5.53;;;3.53;;
76296;SDS011;65104;52.994;6.552;2023-07-29T01:22:02;9.10;;;4.43;;
76296;SDS011;65104;52.994;6.552;2023-07-29T01:24:28;6.15;;;4.20;;
76296;SDS011;65104;52.994;6.552;2023-07-29T01:26:53;7.32;;;4.60;;
76296;SDS011;65104;52.994;6.552;2023-07-29T01:29:18;8.07;;;4.57;;
76296;SDS011;65104;52.994;6.552;2023-07-29T01:31:44;6.65;;;4.05;;
76296;SDS011;65104;52.994;6.552;2023-07-29T01:34:20;8.20;;;5.07;;
76296;SDS011;65104;52.994;6.552;2023-07-29T01:36:51;7.45;;;4.57;;
76296;SDS011;65104;52.994;6.552;2023-07-29T01:39:19;6.80;;;4.65;;
76296;SDS011;65104;52.994;6.552;2023-07-29T01:41:47;8.18;;;4.82;;
76296;SDS011;65104;52.994;6.552;2023-07-29T01:46:40;8.20;;;4.13;;
76296;SDS011;65104;52.994;6.552;2023-07-29T01:49:05;7.20;;;4.28;;
76296;SDS011;65104;52.994;6.552;2023-07-29T01:51:30;6.25;;;3.78;;
76296;SDS011;65104;52.994;6.552;2023-07-29T01:53:56;6.50;;;4.63;;
76296;SDS011;65104;52.994;6.552;2023-07-29T01:56:21;8.93;;;4.95;;
76296;SDS011;65104;52.994;6.552;2023-07-29T01:58:47;7.50;;;4.57;;
76296;SDS011;65104;52.994;6.552;2023-07-29T02:01:12;8.85;;;4.05;;
76296;SDS011;65104;52.994;6.552;2023-07-29T02:03:38;7.60;;;4.47;;
76296;SDS011;65104;52.994;6.552;2023-07-29T02:06:03;7.25;;;4.05;;
76296;SDS011;65104;52.994;6.552;2023-07-29T02:08:28;7.53;;;4.22;;
76296;SDS011;65104;52.994;6.552;2023-07-29T02:10:54;8.57;;;4.47;;
76296;SDS011;65104;52.994;6.552;2023-07-29T02:13:19;7.82;;;4.38;;
76296;SDS011;65104;52.994;6.552;2023-07-29T02:15:44;8.05;;;4.60;;
76296;SDS011;65104;52.994;6.552;2023-07-29T02:18:10;8.43;;;4.55;;
76296;SDS011;65104;52.994;6.552;2023-07-29T02:20:35;8.63;;;4.85;;
76296;SDS011;65104;52.994;6.552;2023-07-29T02:23:00;7.35;;;4.50;;
76296;SDS011;65104;52.994;6.552;2023-07-29T02:25:26;6.80;;;4.03;;
76296;SDS011;65104;52.994;6.552;2023-07-29T02:27:51;7.82;;;4.60;;
76296;SDS011;65104;52.994;6.552;2023-07-29T02:30:16;9.48;;;4.15;;
76296;SDS011;65104;52.994;6.552;2023-07-29T02:32:42;6.82;;;4.63;;
76296;SDS011;65104;52.994;6.552;2023-07-29T02:35:07;9.38;;;4.30;;
76296;SDS011;65104;52.994;6.552;2023-07-29T02:37:33;7.05;;;4.22;;
76296;SDS011;65104;52.994;6.552;2023-07-29T02:39:58;6.95;;;3.78;;
76296;SDS011;65104;52.994;6.552;2023-07-29T02:42:24;7.72;;;4.47;;
76296;SDS011;65104;52.994;6.552;2023-07-29T02:44:49;8.43;;;4.22;;
76296;SDS011;65104;52.994;6.552;2023-07-29T02:47:14;6.43;;;4.47;;
76296;SDS011;65104;52.994;6.552;2023-07-29T02:49:40;8.48;;;4.53;;
76296;SDS011;65104;52.994;6.552;2023-07-29T02:52:05;6.63;;;3.88;;
76296;SDS011;65104;52.994;6.552;2023-07-29T02:54:30;7.60;;;3.88;;
76296;SDS011;65104;52.994;6.552;2023-07-29T02:56:56;6.55;;;3.75;;
76296;SDS011;65104;52.994;6.552;2023-07-29T02:59:21;7.47;;;4.20;;
76296;SDS011;65104;52.994;6.552;2023-07-29T03:01:47;5.13;;;3.30;;
76296;SDS011;65104;52.994;6.552;2023-07-29T03:04:12;7.35;;;3.65;;
76296;SDS011;65104;52.994;6.552;2023-07-29T03:06:40;6.15;;;4.13;;
76296;SDS011;65104;52.994;6.552;2023-07-29T03:09:05;5.60;;;2.75;;
76296;SDS011;65104;52.994;6.552;2023-07-29T03:11:31;6.45;;;3.58;;
76296;SDS011;65104;52.994;6.552;2023-07-29T03:13:56;5.40;;;2.92;;
76296;SDS011;65104;52.994;6.552;2023-07-29T03:16:22;5.80;;;3.22;;
76296;SDS011;65104;52.994;6.552;2023-07-29T03:18:47;4.90;;;3.20;;
76296;SDS011;65104;52.994;6.552;2023-07-29T03:21:13;5.80;;;2.85;;
76296;SDS011;65104;52.994;6.552;2023-07-29T03:23:39;5.35;;;3.25;;
76296;SDS011;65104;52.994;6.552;2023-07-29T03:26:16;5.60;;;2.60;;
76296;SDS011;65104;52.994;6.552;2023-07-29T03:28:42;5.05;;;2.72;;
76296;SDS011;65104;52.994;6.552;2023-07-29T03:31:08;5.93;;;3.30;;
76296;SDS011;65104;52.994;6.552;2023-07-29T03:33:35;5.65;;;2.92;;
76296;SDS011;65104;52.994;6.552;2023-07-29T03:36:01;4.50;;;2.70;;
76296;SDS011;65104;52.994;6.552;2023-07-29T03:38:27;5.53;;;2.95;;
76296;SDS011;65104;52.994;6.552;2023-07-29T03:40:52;6.85;;;2.72;;
76296;SDS011;65104;52.994;6.552;2023-07-29T03:43:18;5.75;;;2.72;;
76296;SDS011;65104;52.994;6.552;2023-07-29T03:45:43;5.13;;;3.05;;
76296;SDS011;65104;52.994;6.552;2023-07-29T03:48:09;4.65;;;2.55;;
76296;SDS011;65104;52.994;6.552;2023-07-29T03:50:34;4.80;;;2.85;;
76296;SDS011;65104;52.994;6.552;2023-07-29T03:53:01;3.88;;;2.20;;
76296;SDS011;65104;52.994;6.552;2023-07-29T03:55:27;3.22;;;2.05;;
76296;SDS011;65104;52.994;6.552;2023-07-29T04:00:20;5.65;;;3.22;;
76296;SDS011;65104;52.994;6.552;2023-07-29T04:02:45;6.50;;;3.50;;
76296;SDS011;65104;52.994;6.552;2023-07-29T04:05:11;4.10;;;2.67;;
76296;SDS011;65104;52.994;6.552;2023-07-29T04:07:36;3.78;;;3.00;;
76296;SDS011;65104;52.994;6.552;2023-07-29T04:10:02;5.72;;;2.88;;
76296;SDS011;65104;52.994;6.552;2023-07-29T04:12:28;4.82;;;2.63;;
76296;SDS011;65104;52.994;6.552;2023-07-29T04:14:53;5.60;;;2.67;;
76296;SDS011;65104;52.994;6.552;2023-07-29T04:17:18;4.78;;;3.08;;
76296;SDS011;65104;52.994;6.552;2023-07-29T04:19:44;4.90;;;2.65;;
76296;SDS011;65104;52.994;6.552;2023-07-29T04:22:09;5.90;;;2.63;;
76296;SDS011;65104;52.994;6.552;2023-07-29T04:24:35;4.60;;;2.95;;
76296;SDS011;65104;52.994;6.552;2023-07-29T04:27:00;4.32;;;2.55;;
76296;SDS011;65104;52.994;6.552;2023-07-29T04:29:26;4.50;;;2.45;;
76296;SDS011;65104;52.994;6.552;2023-07-29T04:31:51;4.65;;;2.75;;
76296;SDS011;65104;52.994;6.552;2023-07-29T04:34:17;4.80;;;2.53;;
76296;SDS011;65104;52.994;6.552;2023-07-29T04:36:44;3.83;;;3.03;;
76296;SDS011;65104;52.994;6.552;2023-07-29T04:39:10;4.20;;;2.70;;
76296;SDS011;65104;52.994;6.552;2023-07-29T04:41:35;4.70;;;2.70;;
76296;SDS011;65104;52.994;6.552;2023-07-29T04:44:01;3.83;;;2.58;;
76296;SDS011;65104;52.994;6.552;2023-07-29T04:46:26;6.60;;;2.88;;
76296;SDS011;65104;52.994;6.552;2023-07-29T04:48:52;5.07;;;2.60;;
76296;SDS011;65104;52.994;6.552;2023-07-29T04:51:17;3.22;;;2.47;;
76296;SDS011;65104;52.994;6.552;2023-07-29T04:53:42;5.53;;;2.33;;
76296;SDS011;65104;52.994;6.552;2023-07-29T04:56:08;2.83;;;2.20;;
76296;SDS011;65104;52.994;6.552;2023-07-29T04:58:33;3.35;;;2.15;;
76296;SDS011;65104;52.994;6.552;2023-07-29T05:01:00;5.97;;;2.60;;
76296;SDS011;65104;52.994;6.552;2023-07-29T05:03:26;2.83;;;2.05;;
76296;SDS011;65104;52.994;6.552;2023-07-29T05:05:51;3.25;;;1.90;;
76296;SDS011;65104;52.994;6.552;2023-07-29T05:08:19;4.45;;;2.20;;
76296;SDS011;65104;52.994;6.552;2023-07-29T05:10:48;4.60;;;2.25;;
76296;SDS011;65104;52.994;6.552;2023-07-29T05:13:14;4.05;;;1.98;;
76296;SDS011;65104;52.994;6.552;2023-07-29T05:15:40;4.80;;;2.33;;
76296;SDS011;65104;52.994;6.552;2023-07-29T05:18:05;4.80;;;2.20;;
76296;SDS011;65104;52.994;6.552;2023-07-29T05:20:30;3.13;;;1.90;;
76296;SDS011;65104;52.994;6.552;2023-07-29T05:22:56;2.15;;;1.80;;
76296;SDS011;65104;52.994;6.552;2023-07-29T05:25:21;2.80;;;2.30;;
76296;SDS011;65104;52.994;6.552;2023-07-29T05:27:47;5.10;;;2.90;;
76296;SDS011;65104;52.994;6.552;2023-07-29T05:30:12;3.30;;;2.05;;
76296;SDS011;65104;52.994;6.552;2023-07-29T05:32:37;4.00;;;2.00;;
76296;SDS011;65104;52.994;6.552;2023-07-29T05:35:03;3.78;;;2.22;;
76296;SDS011;65104;52.994;6.552;2023-07-29T05:37:29;4.07;;;2.08;;
76296;SDS011;65104;52.994;6.552;2023-07-29T05:39:54;2.58;;;1.70;;
76296;SDS011;65104;52.994;6.552;2023-07-29T05:42:19;2.85;;;1.88;;
76296;SDS011;65104;52.994;6.552;2023-07-29T05:44:45;3.05;;;1.90;;
76296;SDS011;65104;52.994;6.552;2023-07-29T05:47:10;5.82;;;2.08;;
76296;SDS011;65104;52.994;6.552;2023-07-29T05:49:35;3.92;;;2.05;;
76296;SDS011;65104;52.994;6.552;2023-07-29T05:52:01;3.47;;;2.00;;
76296;SDS011;65104;52.994;6.552;2023-07-29T05:54:26;4.40;;;2.03;;
76296;SDS011;65104;52.994;6.552;2023-07-29T05:56:52;2.70;;;1.80;;
76296;SDS011;65104;52.994;6.552;2023-07-29T05:59:17;6.22;;;1.80;;
76296;SDS011;65104;52.994;6.552;2023-07-29T06:01:42;3.13;;;1.80;;
76296;SDS011;65104;52.994;6.552;2023-07-29T06:04:08;3.80;;;1.70;;
76296;SDS011;65104;52.994;6.552;2023-07-29T06:06:33;4.45;;;1.90;;
76296;SDS011;65104;52.994;6.552;2023-07-29T06:08:58;4.45;;;1.58;;
76296;SDS011;65104;52.994;6.552;2023-07-29T06:11:24;4.20;;;1.83;;
76296;SDS011;65104;52.994;6.552;2023-07-29T06:13:49;3.20;;;1.77;;
76296;SDS011;65104;52.994;6.552;2023-07-29T06:16:15;2.58;;;1.60;;
76296;SDS011;65104;52.994;6.552;2023-07-29T06:18:40;2.83;;;1.80;;
76296;SDS011;65104;52.994;6.552;2023-07-29T06:21:06;6.25;;;2.00;;
76296;SDS011;65104;52.994;6.552;2023-07-29T06:23:33;5.10;;;1.67;;
76296;SDS011;65104;52.994;6.552;2023-07-29T06:25:59;3.38;;;1.90;;
76296;SDS011;65104;52.994;6.552;2023-07-29T06:28:25;4.22;;;1.65;;
76296;SDS011;65104;52.994;6.552;2023-07-29T06:30:51;4.60;;;1.90;;
76296;SDS011;65104;52.994;6.552;2023-07-29T06:33:17;2.80;;;1.65;;
76296;SDS011;65104;52.994;6.552;2023-07-29T06:35:42;5.53;;;2.35;;
76296;SDS011;65104;52.994;6.552;2023-07-29T06:38:08;5.63;;;2.17;;
76296;SDS011;65104;52.994;6.552;2023-07-29T06:40:33;4.32;;;1.88;;
76296;SDS011;65104;52.994;6.552;2023-07-29T06:42:58;5.93;;;2.30;;
76296;SDS011;65104;52.994;6.552;2023-07-29T06:45:23;4.70;;;1.80;;
76296;SDS011;65104;52.994;6.552;2023-07-29T06:47:49;5.82;;;2.10;;
76296;SDS011;65104;52.994;6.552;2023-07-29T06:50:14;3.53;;;1.77;;
76296;SDS011;65104;52.994;6.552;2023-07-29T06:52:39;5.10;;;2.05;;
76296;SDS011;65104;52.994;6.552;2023-07-29T06:55:05;5.82;;;2.05;;
76296;SDS011;65104;52.994;6.552;2023-07-29T06:57:31;3.75;;;1.88;;
76296;SDS011;65104;52.994;6.552;2023-07-29T06:59:56;4.20;;;1.90;;
76296;SDS011;65104;52.994;6.552;2023-07-29T07:02:22;5.13;;;2.40;;
76296;SDS011;65104;52.994;6.552;2023-07-29T07:04:47;4.43;;;1.90;;
76296;SDS011;65104;52.994;6.552;2023-07-29T07:07:12;2.50;;;1.92;;
76296;SDS011;65104;52.994;6.552;2023-07-29T07:09:38;4.28;;;2.10;;
76296;SDS011;65104;52.994;6.552;2023-07-29T07:12:03;3.60;;;2.30;;
76296;SDS011;65104;52.994;6.552;2023-07-29T07:14:29;7.22;;;2.20;;
76296;SDS011;65104;52.994;6.552;2023-07-29T07:16:54;4.32;;;2.10;;
76296;SDS011;65104;52.994;6.552;2023-07-29T07:19:19;4.10;;;2.38;;
76296;SDS011;65104;52.994;6.552;2023-07-29T07:21:45;3.00;;;1.80;;
76296;SDS011;65104;52.994;6.552;2023-07-29T07:24:10;3.08;;;2.28;;
76296;SDS011;65104;52.994;6.552;2023-07-29T07:26:36;6.47;;;3.10;;
76296;SDS011;65104;52.994;6.552;2023-07-29T07:29:01;4.78;;;2.80;;
76296;SDS011;65104;52.994;6.552;2023-07-29T07:31:26;5.13;;;2.42;;
76296;SDS011;65104;52.994;6.552;2023-07-29T07:33:52;3.30;;;2.17;;
76296;SDS011;65104;52.994;6.552;2023-07-29T07:36:17;4.18;;;2.53;;
76296;SDS011;65104;52.994;6.552;2023-07-29T07:38:42;3.85;;;2.28;;
76296;SDS011;65104;52.994;6.552;2023-07-29T07:41:08;5.13;;;2.38;;
76296;SDS011;65104;52.994;6.552;2023-07-29T07:43:33;4.57;;;2.67;;
76296;SDS011;65104;52.994;6.552;2023-07-29T07:45:59;7.32;;;3.22;;
76296;SDS011;65104;52.994;6.552;2023-07-29T07:48:29;5.68;;;3.00;;
76296;SDS011;65104;52.994;6.552;2023-07-29T07:50:54;6.97;;;3.22;;
76296;SDS011;65104;52.994;6.552;2023-07-29T07:53:19;4.40;;;3.25;;
76296;SDS011;65104;52.994;6.552;2023-07-29T07:55:45;5.35;;;3.60;;
76296;SDS011;65104;52.994;6.552;2023-07-29T07:58:10;4.03;;;3.17;;
76296;SDS011;65104;52.994;6.552;2023-07-29T08:00:36;5.78;;;3.35;;
76296;SDS011;65104;52.994;6.552;2023-07-29T08:03:01;4.10;;;2.67;;
76296;SDS011;65104;52.994;6.552;2023-07-29T08:05:27;3.85;;;2.90;;
76296;SDS011;65104;52.994;6.552;2023-07-29T08:07:52;5.07;;;3.40;;
76296;SDS011;65104;52.994;6.552;2023-07-29T08:10:18;5.40;;;2.80;;
76296;SDS011;65104;52.994;6.552;2023-07-29T08:12:43;5.82;;;2.60;;
76296;SDS011;65104;52.994;6.552;2023-07-29T08:15:08;4.95;;;3.40;;
76296;SDS011;65104;52.994;6.552;2023-07-29T08:17:34;4.10;;;2.92;;
76296;SDS011;65104;52.994;6.552;2023-07-29T08:19:59;4.57;;;3.30;;
76296;SDS011;65104;52.994;6.552;2023-07-29T08:22:24;5.30;;;2.97;;
76296;SDS011;65104;52.994;6.552;2023-07-29T08:24:50;4.50;;;3.22;;
76296;SDS011;65104;52.994;6.552;2023-07-29T08:27:15;5.00;;;3.45;;
76296;SDS011;65104;52.994;6.552;2023-07-29T08:29:40;5.85;;;3.13;;
76296;SDS011;65104;52.994;6.552;2023-07-29T08:32:06;7.10;;;2.80;;
76296;SDS011;65104;52.994;6.552;2023-07-29T08:34:32;3.72;;;3.35;;
76296;SDS011;65104;52.994;6.552;2023-07-29T08:36:57;3.42;;;2.35;;
76296;SDS011;65104;52.994;6.552;2023-07-29T08:39:22;5.47;;;2.47;;
76296;SDS011;65104;52.994;6.552;2023-07-29T08:41:54;2.42;;;2.22;;
76296;SDS011;65104;52.994;6.552;2023-07-29T08:44:26;3.45;;;1.92;;
76296;SDS011;65104;52.994;6.552;2023-07-29T08:46:59;4.55;;;2.55;;
76296;SDS011;65104;52.994;6.552;2023-07-29T08:49:24;4.32;;;2.30;;
76296;SDS011;65104;52.994;6.552;2023-07-29T08:54:18;3.60;;;2.10;;
76296;SDS011;65104;52.994;6.552;2023-07-29T08:56:43;3.95;;;2.22;;
76296;SDS011;65104;52.994;6.552;2023-07-29T08:59:10;3.78;;;2.25;;
76296;SDS011;65104;52.994;6.552;2023-07-29T09:01:41;2.55;;;2.08;;
76296;SDS011;65104;52.994;6.552;2023-07-29T09:04:06;2.58;;;1.98;;
76296;SDS011;65104;52.994;6.552;2023-07-29T09:06:32;3.30;;;2.10;;
76296;SDS011;65104;52.994;6.552;2023-07-29T09:09:00;4.50;;;2.25;;
76296;SDS011;65104;52.994;6.552;2023-07-29T09:11:26;3.78;;;1.92;;
76296;SDS011;65104;52.994;6.552;2023-07-29T09:13:52;2.10;;;1.90;;
76296;SDS011;65104;52.994;6.552;2023-07-29T09:16:18;2.45;;;2.22;;
76296;SDS011;65104;52.994;6.552;2023-07-29T09:18:47;2.90;;;1.85;;
76296;SDS011;65104;52.994;6.552;2023-07-29T09:21:15;2.25;;;1.98;;
76296;SDS011;65104;52.994;6.552;2023-07-29T09:23:43;3.60;;;2.00;;
76296;SDS011;65104;52.994;6.552;2023-07-29T09:26:09;3.53;;;1.83;;
76296;SDS011;65104;52.994;6.552;2023-07-29T09:28:38;2.40;;;1.67;;
76296;SDS011;65104;52.994;6.552;2023-07-29T09:31:04;2.10;;;1.67;;
76296;SDS011;65104;52.994;6.552;2023-07-29T09:33:34;1.75;;;1.65;;
76296;SDS011;65104;52.994;6.552;2023-07-29T09:36:09;2.63;;;1.35;;
76296;SDS011;65104;52.994;6.552;2023-07-29T09:38:35;2.83;;;1.40;;
76296;SDS011;65104;52.994;6.552;2023-07-29T09:41:01;2.25;;;1.60;;
76296;SDS011;65104;52.994;6.552;2023-07-29T09:43:30;2.00;;;1.67;;
76296;SDS011;65104;52.994;6.552;2023-07-29T09:46:00;2.88;;;1.88;;
76296;SDS011;65104;52.994;6.552;2023-07-29T09:48:26;5.85;;;2.60;;
76296;SDS011;65104;52.994;6.552;2023-07-29T09:53:19;4.05;;;1.95;;
76296;SDS011;65104;52.994;6.552;2023-07-29T09:55:48;4.28;;;2.08;;
76296;SDS011;65104;52.994;6.552;2023-07-29T09:58:16;3.35;;;2.10;;
76296;SDS011;65104;52.994;6.552;2023-07-29T10:00:53;4.40;;;2.05;;
76296;SDS011;65104;52.994;6.552;2023-07-29T10:03:21;3.25;;;1.95;;
76296;SDS011;65104;52.994;6.552;2023-07-29T10:05:47;2.53;;;1.63;;
76296;SDS011;65104;52.994;6.552;2023-07-29T10:08:13;1.65;;;1.55;;
76296;SDS011;65104;52.994;6.552;2023-07-29T10:10:41;2.50;;;2.00;;
76296;SDS011;65104;52.994;6.552;2023-07-29T10:13:07;3.83;;;1.60;;
76296;SDS011;65104;52.994;6.552;2023-07-29T10:15:34;4.05;;;1.55;;
76296;SDS011;65104;52.994;6.552;2023-07-29T10:18:01;1.73;;;1.60;;
76296;SDS011;65104;52.994;6.552;2023-07-29T10:20:28;1.95;;;1.60;;
76296;SDS011;65104;52.994;6.552;2023-07-29T10:22:56;2.80;;;1.38;;
76296;SDS011;65104;52.994;6.552;2023-07-29T10:25:25;1.92;;;1.05;;
76296;SDS011;65104;52.994;6.552;2023-07-29T10:28:05;1.27;;;1.02;;
76296;SDS011;65104;52.994;6.552;2023-07-29T10:30:32;1.88;;;1.00;;
76296;SDS011;65104;52.994;6.552;2023-07-29T10:32:58;1.73;;;1.10;;
76296;SDS011;65104;52.994;6.552;2023-07-29T10:35:28;1.23;;;1.02;;
76296;SDS011;65104;52.994;6.552;2023-07-29T10:37:54;0.88;;;0.80;;
76296;SDS011;65104;52.994;6.552;2023-07-29T10:40:20;2.10;;;1.08;;
76296;SDS011;65104;52.994;6.552;2023-07-29T10:42:59;4.13;;;1.40;;
76296;SDS011;65104;52.994;6.552;2023-07-29T10:45:39;2.67;;;0.70;;
76296;SDS011;65104;52.994;6.552;2023-07-29T10:48:06;1.85;;;1.10;;
76296;SDS011;65104;52.994;6.552;2023-07-29T10:50:35;1.50;;;1.13;;
76296;SDS011;65104;52.994;6.552;2023-07-29T10:53:00;1.42;;;1.00;;
76296;SDS011;65104;52.994;6.552;2023-07-29T10:55:29;2.10;;;1.00;;
76296;SDS011;65104;52.994;6.552;2023-07-29T10:58:08;1.85;;;1.20;;
76296;SDS011;65104;52.994;6.552;2023-07-29T11:00:34;3.83;;;1.50;;
76296;SDS011;65104;52.994;6.552;2023-07-29T11:03:01;2.05;;;1.17;;
76296;SDS011;65104;52.994;6.552;2023-07-29T11:05:41;1.40;;;1.00;;
76296;SDS011;65104;52.994;6.552;2023-07-29T11:08:21;2.50;;;1.13;;
76296;SDS011;65104;52.994;6.552;2023-07-29T11:13:28;2.63;;;0.70;;
76296;SDS011;65104;52.994;6.552;2023-07-29T11:15:54;2.63;;;0.75;;
76296;SDS011;65104;52.994;6.552;2023-07-29T11:20:46;1.95;;;0.80;;
76296;SDS011;65104;52.994;6.552;2023-07-29T11:23:13;2.58;;;1.20;;
76296;SDS011;65104;52.994;6.552;2023-07-29T11:25:38;1.95;;;0.73;;
76296;SDS011;65104;52.994;6.552;2023-07-29T11:28:04;1.25;;;1.02;;
76296;SDS011;65104;52.994;6.552;2023-07-29T11:30:29;1.67;;;0.90;;
76296;SDS011;65104;52.994;6.552;2023-07-29T11:32:56;1.50;;;0.75;;
76296;SDS011;65104;52.994;6.552;2023-07-29T11:35:23;1.27;;;1.17;;
76296;SDS011;65104;52.994;6.552;2023-07-29T11:37:49;1.25;;;0.75;;
76296;SDS011;65104;52.994;6.552;2023-07-29T11:40:17;1.67;;;0.77;;
76296;SDS011;65104;52.994;6.552;2023-07-29T11:42:46;1.90;;;0.90;;
76296;SDS011;65104;52.994;6.552;2023-07-29T11:45:13;1.67;;;0.90;;
76296;SDS011;65104;52.994;6.552;2023-07-29T11:47:39;3.03;;;0.93;;
76296;SDS011;65104;52.994;6.552;2023-07-29T11:50:06;2.50;;;0.80;;
76296;SDS011;65104;52.994;6.552;2023-07-29T11:52:34;2.25;;;1.02;;
76296;SDS011;65104;52.994;6.552;2023-07-29T11:55:01;1.50;;;0.88;;
76296;SDS011;65104;52.994;6.552;2023-07-29T11:57:28;2.42;;;1.05;;
76296;SDS011;65104;52.994;6.552;2023-07-29T11:59:58;3.00;;;1.38;;
76296;SDS011;65104;52.994;6.552;2023-07-29T12:02:24;1.23;;;1.10;;
76296;SDS011;65104;52.994;6.552;2023-07-29T12:04:50;3.05;;;1.30;;
76296;SDS011;65104;52.994;6.552;2023-07-29T12:07:17;4.07;;;1.42;;
76296;SDS011;65104;52.994;6.552;2023-07-29T12:09:43;3.00;;;1.33;;
76296;SDS011;65104;52.994;6.552;2023-07-29T12:12:09;4.05;;;1.73;;
76296;SDS011;65104;52.994;6.552;2023-07-29T12:14:35;2.15;;;1.20;;
76296;SDS011;65104;52.994;6.552;2023-07-29T12:17:04;2.63;;;1.52;;
76296;SDS011;65104;52.994;6.552;2023-07-29T12:19:34;3.17;;;2.10;;
76296;SDS011;65104;52.994;6.552;2023-07-29T12:22:02;1.60;;;1.27;;
76296;SDS011;65104;52.994;6.552;2023-07-29T12:24:32;1.77;;;1.35;;
76296;SDS011;65104;52.994;6.552;2023-07-29T12:26:58;2.83;;;1.63;;
76296;SDS011;65104;52.994;6.552;2023-07-29T12:29:24;2.55;;;1.58;;
76296;SDS011;65104;52.994;6.552;2023-07-29T12:31:56;2.53;;;1.50;;
76296;SDS011;65104;52.994;6.552;2023-07-29T12:34:31;3.60;;;2.45;;
76296;SDS011;65104;52.994;6.552;2023-07-29T12:36:57;1.50;;;1.40;;
76296;SDS011;65104;52.994;6.552;2023-07-29T12:39:25;2.05;;;1.48;;
76296;SDS011;65104;52.994;6.552;2023-07-29T12:41:55;2.35;;;1.10;;
76296;SDS011;65104;52.994;6.552;2023-07-29T12:44:25;1.10;;;1.00;;
76296;SDS011;65104;52.994;6.552;2023-07-29T12:46:52;2.15;;;1.23;;
76296;SDS011;65104;52.994;6.552;2023-07-29T12:49:18;4.78;;;1.67;;
76296;SDS011;65104;52.994;6.552;2023-07-29T12:51:43;2.17;;;1.40;;
76296;SDS011;65104;52.994;6.552;2023-07-29T12:54:09;5.47;;;1.45;;
76296;SDS011;65104;52.994;6.552;2023-07-29T12:56:35;1.73;;;1.27;;
76296;SDS011;65104;52.994;6.552;2023-07-29T12:59:00;2.88;;;1.40;;
76296;SDS011;65104;52.994;6.552;2023-07-29T13:01:26;2.00;;;1.02;;
76296;SDS011;65104;52.994;6.552;2023-07-29T13:03:52;2.50;;;1.50;;
76296;SDS011;65104;52.994;6.552;2023-07-29T13:06:18;3.33;;;1.25;;
76296;SDS011;65104;52.994;6.552;2023-07-29T13:08:44;2.30;;;1.55;;
76296;SDS011;65104;52.994;6.552;2023-07-29T13:11:09;1.10;;;0.90;;
76296;SDS011;65104;52.994;6.552;2023-07-29T13:13:35;3.22;;;1.42;;
76296;SDS011;65104;52.994;6.552;2023-07-29T13:16:00;3.40;;;1.02;;
76296;SDS011;65104;52.994;6.552;2023-07-29T13:18:26;1.13;;;0.80;;
76296;SDS011;65104;52.994;6.552;2023-07-29T13:20:51;3.15;;;0.73;;
76296;SDS011;65104;52.994;6.552;2023-07-29T13:23:17;0.85;;;0.68;;
76296;SDS011;65104;52.994;6.552;2023-07-29T13:25:42;1.67;;;0.70;;
76296;SDS011;65104;52.994;6.552;2023-07-29T13:28:11;1.63;;;0.70;;
76296;SDS011;65104;52.994;6.552;2023-07-29T13:30:38;1.30;;;0.52;;
76296;SDS011;65104;52.994;6.552;2023-07-29T13:33:04;1.33;;;0.73;;
76296;SDS011;65104;52.994;6.552;2023-07-29T13:35:30;1.40;;;0.57;;
76296;SDS011;65104;52.994;6.552;2023-07-29T13:37:55;1.05;;;0.60;;
76296;SDS011;65104;52.994;6.552;2023-07-29T13:40:21;1.52;;;0.60;;
76296;SDS011;65104;52.994;6.552;2023-07-29T13:42:46;0.60;;;0.30;;
76296;SDS011;65104;52.994;6.552;2023-07-29T13:45:11;1.42;;;0.50;;
76296;SDS011;65104;52.994;6.552;2023-07-29T13:47:37;1.00;;;0.57;;
76296;SDS011;65104;52.994;6.552;2023-07-29T13:50:02;1.17;;;0.68;;
76296;SDS011;65104;52.994;6.552;2023-07-29T13:52:28;1.00;;;0.60;;
76296;SDS011;65104;52.994;6.552;2023-07-29T13:54:54;0.70;;;0.50;;
76296;SDS011;65104;52.994;6.552;2023-07-29T13:57:19;0.73;;;0.50;;
76296;SDS011;65104;52.994;6.552;2023-07-29T13:59:44;2.67;;;0.50;;
76296;SDS011;65104;52.994;6.552;2023-07-29T14:02:10;1.40;;;0.50;;
76296;SDS011;65104;52.994;6.552;2023-07-29T14:04:35;1.55;;;0.50;;
76296;SDS011;65104;52.994;6.552;2023-07-29T14:07:00;1.17;;;0.60;;
76296;SDS011;65104;52.994;6.552;2023-07-29T14:09:26;1.70;;;0.50;;
76296;SDS011;65104;52.994;6.552;2023-07-29T14:11:53;0.40;;;0.40;;
76296;SDS011;65104;52.994;6.552;2023-07-29T14:14:19;1.02;;;0.60;;
76296;SDS011;65104;52.994;6.552;2023-07-29T14:16:44;0.73;;;0.45;;
76296;SDS011;65104;52.994;6.552;2023-07-29T14:19:10;0.60;;;0.40;;
76296;SDS011;65104;52.994;6.552;2023-07-29T14:21:35;1.13;;;0.52;;
76296;SDS011;65104;52.994;6.552;2023-07-29T14:24:00;1.63;;;0.50;;
76296;SDS011;65104;52.994;6.552;2023-07-29T14:26:26;1.58;;;0.68;;
76296;SDS011;65104;52.994;6.552;2023-07-29T14:28:51;0.85;;;0.50;;
76296;SDS011;65104;52.994;6.552;2023-07-29T14:31:17;1.77;;;0.52;;
76296;SDS011;65104;52.994;6.552;2023-07-29T14:33:42;0.73;;;0.70;;
76296;SDS011;65104;52.994;6.552;2023-07-29T14:36:08;0.65;;;0.55;;
76296;SDS011;65104;52.994;6.552;2023-07-29T14:38:34;0.95;;;0.50;;
76296;SDS011;65104;52.994;6.552;2023-07-29T14:41:00;1.42;;;0.65;;
76296;SDS011;65104;52.994;6.552;2023-07-29T14:43:26;0.80;;;0.55;;
76296;SDS011;65104;52.994;6.552;2023-07-29T14:45:51;1.33;;;0.50;;
76296;SDS011;65104;52.994;6.552;2023-07-29T14:48:16;1.67;;;0.70;;
76296;SDS011;65104;52.994;6.552;2023-07-29T14:50:42;1.58;;;0.77;;
76296;SDS011;65104;52.994;6.552;2023-07-29T14:53:08;1.67;;;0.70;;
76296;SDS011;65104;52.994;6.552;2023-07-29T14:55:34;1.70;;;0.85;;
76296;SDS011;65104;52.994;6.552;2023-07-29T14:58:00;0.75;;;0.68;;
76296;SDS011;65104;52.994;6.552;2023-07-29T15:00:25;1.70;;;0.93;;
76296;SDS011;65104;52.994;6.552;2023-07-29T15:02:50;2.20;;;0.80;;
76296;SDS011;65104;52.994;6.552;2023-07-29T15:05:16;1.35;;;0.43;;
76296;SDS011;65104;52.994;6.552;2023-07-29T15:07:41;1.90;;;0.40;;